sensor_id;sensor_type;location;lat;lon;timestamp;temperature;humidity
43458;DHT22;29046;54.184;18.680;2023-03-23T20:58:35;9.90;99.90
43458;DHT22;29046;54.184;18.680;2023-03-23T21:01:04;10.10;99.90
43458;DHT22;29046;54.184;18.680;2023-03-23T21:03:36;10.10;99.90
43458;DHT22;29046;54.184;18.680;2023-03-23T21:06:07;10.30;99.90
43458;DHT22;29046;54.184;18.680;2023-03-23T21:08:36;10.30;99.90
43458;DHT22;29046;54.184;18.680;2023-03-23T21:11:08;10.30;99.90
43458;DHT22;29046;54.184;18.680;2023-03-23T21:13:35;10.30;99.90
43458;DHT22;29046;54.184;18.680;2023-03-23T21:16:03;10.30;99.90
43458;DHT22;29046;54.184;18.680;2023-03-23T21:18:31;10.10;99.90
43458;DHT22;29046;54.184;18.680;2023-03-23T21:20:59;9.70;99.90
43458;DHT22;29046;54.184;18.680;2023-03-23T21:23:28;9.50;99.90
43458;DHT22;29046;54.184;18.680;2023-03-23T21:26:01;9.40;99.90
43458;DHT22;29046;54.184;18.680;2023-03-23T21:28:29;9.30;99.90
43458;DHT22;29046;54.184;18.680;2023-03-23T21:31:01;9.30;99.90
43458;DHT22;29046;54.184;18.680;2023-03-23T21:33:29;9.20;99.90
43458;DHT22;29046;54.184;18.680;2023-03-23T21:35:57;9.20;99.90
43458;DHT22;29046;54.184;18.680;2023-03-23T21:38:23;9.20;99.90
43458;DHT22;29046;54.184;18.680;2023-03-23T21:40:55;9.10;99.90
43458;DHT22;29046;54.184;18.680;2023-03-23T21:43:22;9.10;99.90
43458;DHT22;29046;54.184;18.680;2023-03-23T21:45:56;9.10;99.90
43458;DHT22;29046;54.184;18.680;2023-03-23T21:48:28;9.10;99.90
43458;DHT22;29046;54.184;18.680;2023-03-23T21:50:55;9.20;99.90
43458;DHT22;29046;54.184;18.680;2023-03-23T21:53:22;9.20;99.90
43458;DHT22;29046;54.184;18.680;2023-03-23T21:55:51;9.10;99.90
43458;DHT22;29046;54.184;18.680;2023-03-23T21:58:20;9.10;99.90
43458;DHT22;29046;54.184;18.680;2023-03-23T22:00:48;9.00;99.90
43458;DHT22;29046;54.184;18.680;2023-03-23T22:03:16;9.00;99.90
43458;DHT22;29046;54.184;18.680;2023-03-23T22:05:44;8.90;99.90
43458;DHT22;29046;54.184;18.680;2023-03-23T22:08:12;8.80;99.90
43458;DHT22;29046;54.184;18.680;2023-03-23T22:10:41;8.70;99.90
43458;DHT22;29046;54.184;18.680;2023-03-23T22:13:27;8.70;99.90
43458;DHT22;29046;54.184;18.680;2023-03-23T22:15:56;8.70;99.90
43458;DHT22;29046;54.184;18.680;2023-03-23T22:18:24;8.60;99.90
43458;DHT22;29046;54.184;18.680;2023-03-23T22:20:51;8.60;99.90
43458;DHT22;29046;54.184;18.680;2023-03-23T22:23:18;8.60;99.90
43458;DHT22;29046;54.184;18.680;2023-03-23T22:25:46;8.60;99.90
43458;DHT22;29046;54.184;18.680;2023-03-23T22:28:13;8.60;99.90
43458;DHT22;29046;54.184;18.680;2023-03-23T22:30:40;8.50;99.90
43458;DHT22;29046;54.184;18.680;2023-03-23T22:33:07;8.50;99.90
43458;DHT22;29046;54.184;18.680;2023-03-23T22:35:34;8.50;99.90
43458;DHT22;29046;54.184;18.680;2023-03-23T22:38:02;8.50;99.90
43458;DHT22;29046;54.184;18.680;2023-03-23T22:40:30;8.60;99.90
43458;DHT22;29046;54.184;18.680;2023-03-23T22:42:57;8.60;99.90
43458;DHT22;29046;54.184;18.680;2023-03-23T22:45:24;8.50;99.90
43458;DHT22;29046;54.184;18.680;2023-03-23T22:47:53;8.60;99.90
43458;DHT22;29046;54.184;18.680;2023-03-23T22:50:20;8.70;99.90
43458;DHT22;29046;54.184;18.680;2023-03-23T22:52:50;8.70;99.90
43458;DHT22;29046;54.184;18.680;2023-03-23T22:55:17;8.60;99.90
43458;DHT22;29046;54.184;18.680;2023-03-23T22:57:44;8.60;99.90
43458;DHT22;29046;54.184;18.680;2023-03-23T23:00:12;8.60;99.90
43458;DHT22;29046;54.184;18.680;2023-03-23T23:02:44;8.60;99.90
43458;DHT22;29046;54.184;18.680;2023-03-23T23:05:12;8.60;99.90
43458;DHT22;29046;54.184;18.680;2023-03-23T23:07:39;8.50;99.90
43458;DHT22;29046;54.184;18.680;2023-03-23T23:10:07;8.50;99.90
43458;DHT22;29046;54.184;18.680;2023-03-23T23:12:34;8.40;99.90
43458;DHT22;29046;54.184;18.680;2023-03-23T23:15:04;8.40;99.90
43458;DHT22;29046;54.184;18.680;2023-03-23T23:17:32;8.40;99.90
43458;DHT22;29046;54.184;18.680;2023-03-23T23:20:00;8.30;99.90
43458;DHT22;29046;54.184;18.680;2023-03-23T23:22:32;8.30;99.90
43458;DHT22;29046;54.184;18.680;2023-03-23T23:24:59;8.30;99.90
43458;DHT22;29046;54.184;18.680;2023-03-23T23:27:26;8.30;99.90
43458;DHT22;29046;54.184;18.680;2023-03-23T23:29:54;8.20;99.90
43458;DHT22;29046;54.184;18.680;2023-03-23T23:32:21;8.30;99.90
43458;DHT22;29046;54.184;18.680;2023-03-23T23:34:48;8.30;99.90
43458;DHT22;29046;54.184;18.680;2023-03-23T23:37:15;8.30;99.90
43458;DHT22;29046;54.184;18.680;2023-03-23T23:39:42;8.30;99.90
43458;DHT22;29046;54.184;18.680;2023-03-23T23:42:10;8.30;99.90
43458;DHT22;29046;54.184;18.680;2023-03-23T23:44:37;8.30;99.90
43458;DHT22;29046;54.184;18.680;2023-03-23T23:47:05;8.30;99.90
43458;DHT22;29046;54.184;18.680;2023-03-23T23:49:32;8.20;99.90
43458;DHT22;29046;54.184;18.680;2023-03-23T23:52:00;8.20;99.90
43458;DHT22;29046;54.184;18.680;2023-03-23T23:54:27;8.10;99.90
43458;DHT22;29046;54.184;18.680;2023-03-23T23:56:59;8.00;99.90
43458;DHT22;29046;54.184;18.680;2023-03-23T23:59:27;8.00;99.90
